Time;durP1;ratioP1;P1;durP2;ratioP2;P2;SDS_P1;SDS_P2;PMS_P1;PMS_P2;Temp;Humidity;BMP_temperature;BMP_pressure;BME280_temperature;BME280_humidity;BME280_pressure;Samples;Min_cycle;Max_cycle;Signal;HPM_P1;HPM_P2
2021/05/12 00:00:24;;;;;;;12.77;8.17;;;;;;;;;;4965531;28;20196;-61
2021/05/12 00:02:52;;;;;;;12.93;8.90;;;;;;;;;;4958229;28;20232;-61
2021/05/12 00:05:21;;;;;;;12.23;8.83;;;;;;;;;;4974131;28;20251;-63
2021/05/12 00:07:52;;;;;;;12.93;8.10;;;;;;;;;;4964974;28;20359;-58
2021/05/12 00:10:19;;;;;;;11.80;8.80;;;;;;;;;;4964298;28;20200;-62
2021/05/12 00:12:49;;;;;;;9.77;8.77;;;;;;;;;;4960934;28;20865;-60
2021/05/12 00:15:22;;;;;;;11.73;8.53;;;;;;;;;;4962836;28;20195;-62
2021/05/12 00:17:52;;;;;;;13.90;9.83;;;;;;;;;;4978647;28;20224;-60
2021/05/12 00:20:27;;;;;;;13.60;11.33;;;;;;;;;;4964809;28;20216;-59
2021/05/12 00:25:23;;;;;;;17.83;13.20;;;;;;;;;;4963963;28;20193;-62
2021/05/12 00:27:51;;;;;;;16.80;13.37;;;;;;;;;;4955493;28;20243;-61
2021/05/12 00:30:19;;;;;;;16.90;13.40;;;;;;;;;;4971425;28;20210;-62
2021/05/12 00:32:45;;;;;;;17.20;13.30;;;;;;;;;;4972711;28;20692;-61
2021/05/12 00:35:14;;;;;;;20.07;14.07;;;;;;;;;;4972011;28;20325;-60
2021/05/12 00:37:39;;;;;;;19.30;15.23;;;;;;;;;;4971049;28;20224;-60
2021/05/12 00:40:09;;;;;;;21.03;15.37;;;;;;;;;;4968319;28;20248;-59
2021/05/12 00:42:38;;;;;;;21.17;15.80;;;;;;;;;;4967384;28;20262;-62
2021/05/12 00:45:10;;;;;;;20.60;16.53;;;;;;;;;;4968493;28;20222;-63
2021/05/12 00:47:39;;;;;;;23.07;18.57;;;;;;;;;;4971767;28;20191;-59
2021/05/12 00:50:07;;;;;;;24.67;19.30;;;;;;;;;;4968802;28;20197;-60
2021/05/12 00:52:33;;;;;;;24.07;19.60;;;;;;;;;;4966658;28;20195;-60
2021/05/12 00:54:59;;;;;;;25.70;21.40;;;;;;;;;;4978834;28;20189;-60
2021/05/12 00:57:26;;;;;;;33.80;22.83;;;;;;;;;;4962117;28;20721;-62
2021/05/12 00:59:53;;;;;;;25.07;21.67;;;;;;;;;;4970488;28;20193;-60
2021/05/12 01:02:21;;;;;;;30.57;24.27;;;;;;;;;;4969605;28;20184;-62
2021/05/12 01:04:47;;;;;;;27.97;24.03;;;;;;;;;;4964587;28;20934;-60
2021/05/12 01:07:14;;;;;;;30.53;24.63;;;;;;;;;;4970399;28;20200;-62
2021/05/12 01:09:42;;;;;;;33.47;25.33;;;;;;;;;;4963834;28;20208;-59
2021/05/12 01:12:10;;;;;;;33.77;25.67;;;;;;;;;;4969240;28;20195;-59
2021/05/12 01:14:36;;;;;;;33.17;24.23;;;;;;;;;;4974842;28;20287;-60
2021/05/12 01:17:06;;;;;;;31.27;24.20;;;;;;;;;;4965983;28;20848;-61
2021/05/12 01:19:33;;;;;;;27.07;23.57;;;;;;;;;;4964436;28;20196;-59
2021/05/12 01:22:01;;;;;;;34.93;23.70;;;;;;;;;;4968337;28;20196;-62
2021/05/12 01:24:28;;;;;;;27.33;22.57;;;;;;;;;;4969840;28;20200;-61
2021/05/12 01:26:58;;;;;;;31.43;23.30;;;;;;;;;;4969885;28;20193;-60
2021/05/12 01:29:26;;;;;;;29.87;22.23;;;;;;;;;;4971129;28;20613;-59
2021/05/12 01:31:54;;;;;;;26.80;22.23;;;;;;;;;;4969308;28;20719;-62
2021/05/12 01:34:20;;;;;;;30.10;22.27;;;;;;;;;;4965820;28;20205;-61
2021/05/12 01:36:47;;;;;;;27.23;22.70;;;;;;;;;;4968653;28;20615;-61
2021/05/12 01:39:13;;;;;;;26.20;21.27;;;;;;;;;;4970291;28;20193;-61
2021/05/12 01:41:42;;;;;;;26.70;21.70;;;;;;;;;;4972587;28;20250;-58
2021/05/12 01:44:11;;;;;;;28.53;22.70;;;;;;;;;;4964342;28;20229;-59
2021/05/12 01:46:43;;;;;;;31.87;23.20;;;;;;;;;;4971518;28;20610;-59
2021/05/12 01:49:10;;;;;;;29.63;22.67;;;;;;;;;;4966819;28;20204;-59
2021/05/12 01:51:41;;;;;;;30.20;23.30;;;;;;;;;;4965926;28;20184;-62
2021/05/12 01:54:10;;;;;;;27.67;22.03;;;;;;;;;;4971320;28;20217;-60
2021/05/12 01:56:37;;;;;;;30.33;23.07;;;;;;;;;;4969403;28;20699;-59
2021/05/12 01:59:10;;;;;;;28.33;22.83;;;;;;;;;;4966036;28;20197;-61
2021/05/12 02:01:39;;;;;;;29.03;23.40;;;;;;;;;;4966319;28;20220;-59
2021/05/12 02:04:10;;;;;;;30.23;23.33;;;;;;;;;;4965579;28;20289;-60
2021/05/12 02:06:36;;;;;;;29.40;23.77;;;;;;;;;;4966676;28;20554;-61
2021/05/12 02:09:08;;;;;;;28.93;22.53;;;;;;;;;;4967979;28;20184;-60
2021/05/12 02:11:34;;;;;;;30.00;22.03;;;;;;;;;;4969716;28;20188;-62
2021/05/12 02:14:03;;;;;;;29.57;22.80;;;;;;;;;;4974650;28;20216;-58
2021/05/12 02:16:30;;;;;;;30.77;23.23;;;;;;;;;;4969291;28;20208;-58
2021/05/12 02:19:00;;;;;;;31.57;22.53;;;;;;;;;;4966271;28;20196;-60
2021/05/12 02:21:28;;;;;;;35.80;24.00;;;;;;;;;;4963972;28;20192;-59
2021/05/12 02:23:55;;;;;;;32.87;24.17;;;;;;;;;;4964502;28;20216;-60
2021/05/12 02:26:23;;;;;;;31.37;24.27;;;;;;;;;;4971901;28;20560;-59
2021/05/12 02:28:51;;;;;;;31.47;23.50;;;;;;;;;;4963220;28;20719;-60
2021/05/12 02:31:18;;;;;;;31.60;23.70;;;;;;;;;;4961036;28;20251;-60
2021/05/12 02:33:48;;;;;;;30.33;23.27;;;;;;;;;;4965210;28;20220;-60
2021/05/12 02:36:14;;;;;;;31.23;22.80;;;;;;;;;;4958424;28;20797;-61
2021/05/12 02:38:41;;;;;;;35.30;22.93;;;;;;;;;;4976255;28;20287;-61
2021/05/12 02:41:08;;;;;;;33.07;23.87;;;;;;;;;;4968601;28;20287;-60
2021/05/12 02:43:34;;;;;;;30.10;22.33;;;;;;;;;;4963335;28;20287;-62
2021/05/12 02:46:02;;;;;;;31.17;23.53;;;;;;;;;;4968223;28;20271;-61
2021/05/12 02:48:29;;;;;;;36.10;24.53;;;;;;;;;;4967506;28;20611;-62
2021/05/12 02:50:55;;;;;;;33.23;23.43;;;;;;;;;;4967753;28;20312;-59
2021/05/12 02:53:22;;;;;;;30.13;24.23;;;;;;;;;;4973013;28;20244;-61
2021/05/12 02:55:50;;;;;;;34.17;23.87;;;;;;;;;;4970217;28;20247;-61
2021/05/12 02:58:23;;;;;;;31.30;24.07;;;;;;;;;;4960533;28;20254;-61
2021/05/12 03:00:48;;;;;;;34.40;23.63;;;;;;;;;;4964589;28;20781;-60
2021/05/12 03:03:14;;;;;;;38.93;24.53;;;;;;;;;;4963668;28;20220;-60
2021/05/12 03:05:42;;;;;;;37.03;24.23;;;;;;;;;;4964140;28;20195;-66
2021/05/12 03:08:08;;;;;;;32.87;23.63;;;;;;;;;;4964503;28;20200;-61
2021/05/12 03:10:36;;;;;;;30.30;23.23;;;;;;;;;;4965772;28;20871;-60
2021/05/12 03:13:08;;;;;;;35.07;23.63;;;;;;;;;;4965006;28;20208;-63
2021/05/12 03:15:37;;;;;;;32.07;23.87;;;;;;;;;;4961922;28;20243;-62
2021/05/12 03:18:02;;;;;;;35.83;24.50;;;;;;;;;;4964221;28;20677;-62
2021/05/12 03:20:29;;;;;;;34.43;24.03;;;;;;;;;;4963781;28;20172;-60
2021/05/12 03:22:56;;;;;;;38.30;24.87;;;;;;;;;;4980937;28;20211;-63
2021/05/12 03:25:25;;;;;;;38.03;24.50;;;;;;;;;;4961913;28;20199;-60
2021/05/12 03:27:54;;;;;;;34.43;24.70;;;;;;;;;;4966645;28;20275;-62
2021/05/12 03:30:29;;;;;;;31.57;22.83;;;;;;;;;;4964416;28;20602;-61
2021/05/12 03:32:56;;;;;;;34.33;24.03;;;;;;;;;;4965188;28;20598;-60
2021/05/12 03:35:26;;;;;;;33.30;24.07;;;;;;;;;;4962117;28;20709;-60
2021/05/12 03:37:56;;;;;;;32.77;24.50;;;;;;;;;;4965196;28;20579;-63
2021/05/12 03:40:24;;;;;;;35.23;23.60;;;;;;;;;;4962826;28;20216;-68
2021/05/12 03:42:52;;;;;;;33.63;23.20;;;;;;;;;;4962227;28;20197;-66
2021/05/12 03:45:22;;;;;;;34.40;24.23;;;;;;;;;;4963477;28;20191;-60
2021/05/12 03:47:50;;;;;;;37.83;25.10;;;;;;;;;;4961415;28;20191;-60
2021/05/12 03:50:16;;;;;;;35.60;23.73;;;;;;;;;;4961879;28;20204;-60
2021/05/12 03:52:42;;;;;;;32.53;23.80;;;;;;;;;;4963670;28;20288;-61
2021/05/12 03:55:09;;;;;;;31.10;22.83;;;;;;;;;;4964563;28;20763;-66
2021/05/12 03:57:35;;;;;;;35.23;23.73;;;;;;;;;;4963764;28;20220;-63
2021/05/12 04:00:00;;;;;;;33.23;23.70;;;;;;;;;;4963390;28;20676;-60
2021/05/12 04:02:30;;;;;;;29.47;22.53;;;;;;;;;;4966950;28;20185;-62
2021/05/12 04:04:58;;;;;;;30.07;22.77;;;;;;;;;;4967335;28;20203;-64
2021/05/12 04:07:27;;;;;;;28.03;22.00;;;;;;;;;;4966820;28;20656;-61
2021/05/12 04:09:53;;;;;;;36.43;22.50;;;;;;;;;;4967740;28;20199;-64
2021/05/12 04:12:23;;;;;;;31.50;24.17;;;;;;;;;;4964369;28;20189;-59
2021/05/12 04:14:50;;;;;;;34.67;25.20;;;;;;;;;;4967769;28;20204;-60
2021/05/12 04:17:18;;;;;;;33.40;24.13;;;;;;;;;;4965688;28;20723;-68
2021/05/12 04:19:45;;;;;;;34.90;24.47;;;;;;;;;;4966998;28;20197;-65
2021/05/12 04:22:15;;;;;;;32.87;23.67;;;;;;;;;;4967426;28;20207;-60
2021/05/12 04:24:41;;;;;;;36.73;24.70;;;;;;;;;;4967527;28;20802;-59
2021/05/12 04:27:08;;;;;;;32.67;23.17;;;;;;;;;;4966251;28;20268;-60
2021/05/12 04:29:36;;;;;;;35.53;23.93;;;;;;;;;;4966085;28;20201;-63
2021/05/12 04:32:04;;;;;;;29.43;22.40;;;;;;;;;;4967343;28;20204;-64
2021/05/12 04:34:30;;;;;;;30.63;23.57;;;;;;;;;;4967017;28;20224;-65
2021/05/12 04:36:55;;;;;;;34.80;24.10;;;;;;;;;;4967362;28;20211;-63
2021/05/12 04:39:21;;;;;;;34.13;25.30;;;;;;;;;;4965069;28;20749;-60
2021/05/12 04:41:48;;;;;;;33.77;24.57;;;;;;;;;;4964534;28;20195;-67
2021/05/12 04:44:14;;;;;;;32.10;24.33;;;;;;;;;;4966031;28;20335;-60
2021/05/12 04:46:44;;;;;;;33.97;23.63;;;;;;;;;;4964180;28;20224;-61
2021/05/12 04:49:14;;;;;;;30.43;23.83;;;;;;;;;;4965603;28;20203;-69
2021/05/12 04:51:39;;;;;;;34.80;23.67;;;;;;;;;;4966154;28;20204;-61
2021/05/12 04:54:05;;;;;;;29.97;22.93;;;;;;;;;;4963379;28;20204;-66
2021/05/12 04:56:35;;;;;;;32.63;23.30;;;;;;;;;;4964800;28;20590;-67
2021/05/12 04:59:03;;;;;;;35.30;24.57;;;;;;;;;;4966422;28;20363;-61
2021/05/12 05:01:30;;;;;;;35.37;23.40;;;;;;;;;;4964625;28;20196;-68
2021/05/12 05:03:57;;;;;;;30.13;23.23;;;;;;;;;;4964853;28;20227;-68
2021/05/12 05:06:25;;;;;;;32.80;22.73;;;;;;;;;;4964782;28;20250;-61
2021/05/12 05:08:52;;;;;;;27.00;21.90;;;;;;;;;;4965773;28;20789;-61
2021/05/12 05:11:19;;;;;;;28.43;22.60;;;;;;;;;;4964644;28;20201;-62
2021/05/12 05:13:47;;;;;;;33.37;22.63;;;;;;;;;;4979380;28;20235;-61
2021/05/12 05:16:17;;;;;;;28.40;22.00;;;;;;;;;;4965104;28;20220;-62
2021/05/12 05:18:45;;;;;;;25.90;20.50;;;;;;;;;;4965638;28;20797;-65
2021/05/12 05:21:15;;;;;;;28.30;20.73;;;;;;;;;;4964773;28;20560;-62
2021/05/12 05:23:41;;;;;;;29.07;22.13;;;;;;;;;;4965517;28;20344;-64
2021/05/12 05:26:08;;;;;;;26.97;21.80;;;;;;;;;;4965886;28;20845;-65
2021/05/12 05:28:36;;;;;;;27.83;22.30;;;;;;;;;;4966457;28;20180;-61
2021/05/12 05:31:04;;;;;;;28.07;21.07;;;;;;;;;;4965657;28;20203;-58
2021/05/12 05:33:33;;;;;;;32.00;22.47;;;;;;;;;;4964527;28;20213;-59
2021/05/12 05:36:01;;;;;;;32.03;22.53;;;;;;;;;;4964909;28;20220;-63
2021/05/12 05:38:31;;;;;;;36.43;23.43;;;;;;;;;;4965053;28;20196;-64
2021/05/12 05:40:58;;;;;;;32.33;21.60;;;;;;;;;;4965070;28;20208;-64
2021/05/12 05:43:26;;;;;;;31.17;21.70;;;;;;;;;;4965479;28;20216;-69
2021/05/12 05:45:58;;;;;;;31.80;21.63;;;;;;;;;;4962955;28;20204;-63
2021/05/12 05:48:26;;;;;;;33.60;21.23;;;;;;;;;;4965484;28;20227;-60
2021/05/12 05:50:51;;;;;;;32.33;21.77;;;;;;;;;;4965857;28;20203;-68
2021/05/12 05:53:20;;;;;;;29.83;21.37;;;;;;;;;;4965053;28;20205;-63
2021/05/12 05:55:48;;;;;;;30.23;20.60;;;;;;;;;;4959917;28;20185;-65
2021/05/12 05:58:19;;;;;;;29.07;21.10;;;;;;;;;;4963330;28;20288;-61
2021/05/12 06:00:45;;;;;;;33.27;21.30;;;;;;;;;;4965503;28;20235;-61
2021/05/12 06:03:13;;;;;;;31.63;21.03;;;;;;;;;;4964488;28;20217;-67
2021/05/12 06:05:38;;;;;;;31.67;20.27;;;;;;;;;;4964701;28;20204;-61
2021/05/12 06:08:07;;;;;;;34.50;21.27;;;;;;;;;;4964915;28;20185;-63
2021/05/12 06:10:34;;;;;;;32.70;21.20;;;;;;;;;;4965895;28;20593;-68
2021/05/12 06:12:59;;;;;;;34.03;20.77;;;;;;;;;;4965095;28;20704;-64
2021/05/12 06:15:27;;;;;;;31.80;20.57;;;;;;;;;;4960695;28;20204;-60
2021/05/12 06:17:55;;;;;;;28.40;20.80;;;;;;;;;;4960164;28;20240;-62
2021/05/12 06:20:20;;;;;;;33.57;21.00;;;;;;;;;;4962650;28;20196;-63
2021/05/12 06:22:48;;;;;;;33.93;21.60;;;;;;;;;;4978132;28;20220;-61
2021/05/12 06:25:13;;;;;;;32.07;20.73;;;;;;;;;;4961509;28;20211;-59
2021/05/12 06:27:44;;;;;;;30.87;20.27;;;;;;;;;;4963046;28;20676;-63
2021/05/12 06:30:14;;;;;;;28.60;20.30;;;;;;;;;;4961022;28;20195;-64
2021/05/12 06:32:44;;;;;;;29.57;20.03;;;;;;;;;;4963955;28;20598;-64
2021/05/12 06:35:12;;;;;;;30.30;20.30;;;;;;;;;;4966908;28;20231;-63
2021/05/12 06:37:39;;;;;;;26.90;18.97;;;;;;;;;;4981810;28;20304;-67
2021/05/12 06:40:06;;;;;;;30.30;19.90;;;;;;;;;;4955393;28;20239;-59
2021/05/12 06:42:31;;;;;;;29.27;19.20;;;;;;;;;;4966446;28;20240;-59
2021/05/12 06:44:56;;;;;;;31.60;20.40;;;;;;;;;;4965618;28;20196;-58
2021/05/12 06:47:24;;;;;;;27.47;19.47;;;;;;;;;;4967866;28;20193;-57
2021/05/12 06:49:49;;;;;;;28.10;19.53;;;;;;;;;;4966279;28;20197;-59
2021/05/12 06:52:14;;;;;;;31.40;19.77;;;;;;;;;;4969125;28;20810;-58
2021/05/12 06:54:42;;;;;;;27.27;19.67;;;;;;;;;;4964365;28;20227;-62
2021/05/12 06:57:09;;;;;;;29.40;20.40;;;;;;;;;;4966594;28;20208;-62
2021/05/12 06:59:39;;;;;;;31.73;20.00;;;;;;;;;;4969020;28;20185;-62
2021/05/12 07:02:05;;;;;;;27.10;19.60;;;;;;;;;;4968273;28;20204;-62
2021/05/12 07:04:32;;;;;;;28.47;19.37;;;;;;;;;;4967987;28;20209;-63
2021/05/12 07:06:57;;;;;;;26.30;19.53;;;;;;;;;;4968327;28;20197;-60
2021/05/12 07:09:25;;;;;;;26.53;19.10;;;;;;;;;;4971145;28;20194;-57
2021/05/12 07:11:52;;;;;;;30.17;19.33;;;;;;;;;;4967444;28;20284;-59
2021/05/12 07:14:17;;;;;;;27.63;19.47;;;;;;;;;;4966296;28;20308;-61
2021/05/12 07:16:43;;;;;;;26.87;19.13;;;;;;;;;;4966949;28;20239;-59
2021/05/12 07:19:10;;;;;;;21.70;16.80;;;;;;;;;;4966554;28;20369;-57
2021/05/12 07:21:41;;;;;;;23.67;18.33;;;;;;;;;;4967143;28;20744;-59
2021/05/12 07:24:06;;;;;;;26.57;18.87;;;;;;;;;;4968394;28;20211;-60
2021/05/12 07:26:32;;;;;;;26.20;18.30;;;;;;;;;;4963399;28;20726;-58
2021/05/12 07:29:00;;;;;;;28.10;19.20;;;;;;;;;;4968507;28;20320;-58
2021/05/12 07:31:27;;;;;;;28.37;20.10;;;;;;;;;;4963772;28;20373;-59
2021/05/12 07:33:57;;;;;;;27.43;19.40;;;;;;;;;;4969866;28;20214;-57
2021/05/12 07:36:22;;;;;;;26.90;19.93;;;;;;;;;;4966376;28;20374;-59
2021/05/12 07:38:47;;;;;;;25.00;18.90;;;;;;;;;;4966989;28;20740;-58
2021/05/12 07:41:13;;;;;;;30.57;19.00;;;;;;;;;;4951220;28;20328;-59
2021/05/12 07:43:38;;;;;;;27.90;19.60;;;;;;;;;;4969160;28;20208;-60
2021/05/12 07:46:06;;;;;;;27.97;19.73;;;;;;;;;;4969325;28;20200;-63
2021/05/12 07:48:34;;;;;;;28.43;20.50;;;;;;;;;;4970142;28;20926;-65
2021/05/12 07:51:04;;;;;;;26.63;19.40;;;;;;;;;;4966801;28;20199;-58
2021/05/12 07:53:34;;;;;;;25.73;18.43;;;;;;;;;;4967078;28;20580;-60
2021/05/12 07:55:59;;;;;;;28.53;20.13;;;;;;;;;;4969650;28;20196;-61
2021/05/12 07:58:24;;;;;;;25.33;18.90;;;;;;;;;;4966868;28;20283;-58
2021/05/12 08:00:50;;;;;;;27.57;19.03;;;;;;;;;;4968155;28;20195;-63
2021/05/12 08:03:15;;;;;;;23.37;17.77;;;;;;;;;;4966437;28;20221;-68
2021/05/12 08:05:43;;;;;;;25.27;18.20;;;;;;;;;;4979150;28;20203;-64
2021/05/12 08:08:13;;;;;;;23.60;18.33;;;;;;;;;;4966862;28;20658;-70
2021/05/12 08:10:40;;;;;;;23.80;17.50;;;;;;;;;;4967895;28;20227;-66
2021/05/12 08:13:05;;;;;;;23.53;17.27;;;;;;;;;;4964760;28;20258;-62
2021/05/12 08:15:31;;;;;;;21.70;16.70;;;;;;;;;;4970355;28;20229;-63
2021/05/12 08:17:58;;;;;;;20.03;16.10;;;;;;;;;;4967916;28;20209;-64
2021/05/12 08:20:29;;;;;;;23.23;15.83;;;;;;;;;;4968748;28;20219;-64
2021/05/12 08:22:54;;;;;;;19.43;14.83;;;;;;;;;;4974678;28;20299;-71
2021/05/12 08:25:22;;;;;;;21.23;16.10;;;;;;;;;;4985406;28;20830;-65
2021/05/12 08:27:53;;;;;;;20.07;15.13;;;;;;;;;;4966741;28;20337;-61
2021/05/12 08:30:23;;;;;;;20.90;15.03;;;;;;;;;;4967181;28;20247;-61
2021/05/12 08:32:51;;;;;;;18.47;13.83;;;;;;;;;;4967973;28;20263;-61
2021/05/12 08:35:16;;;;;;;19.00;14.83;;;;;;;;;;4963568;28;20236;-65
2021/05/12 08:37:42;;;;;;;18.17;14.67;;;;;;;;;;4963977;28;20793;-65
2021/05/12 08:40:10;;;;;;;18.57;13.97;;;;;;;;;;4968052;28;20193;-63
2021/05/12 08:42:39;;;;;;;19.30;14.57;;;;;;;;;;4967303;28;20288;-63
2021/05/12 08:45:05;;;;;;;17.57;13.87;;;;;;;;;;4976065;28;20192;-68
2021/05/12 08:47:31;;;;;;;16.93;14.03;;;;;;;;;;4965485;28;20184;-65
2021/05/12 08:49:59;;;;;;;18.60;13.73;;;;;;;;;;4963908;28;20575;-64
2021/05/12 08:52:26;;;;;;;17.80;14.33;;;;;;;;;;4964066;28;20633;-63
2021/05/12 08:54:53;;;;;;;17.83;14.50;;;;;;;;;;4968174;28;20267;-59
2021/05/12 08:57:21;;;;;;;16.53;14.43;;;;;;;;;;4965837;28;20204;-59
2021/05/12 08:59:46;;;;;;;19.87;15.17;;;;;;;;;;4960943;28;20772;-59
2021/05/12 09:02:12;;;;;;;17.87;14.67;;;;;;;;;;4972623;28;20193;-66
2021/05/12 09:04:37;;;;;;;15.30;12.40;;;;;;;;;;4990514;23;20260;-55
2021/05/12 09:07:04;;;;;;;16.03;13.83;;;;;;;;;;4987003;28;20617;-54
2021/05/12 09:09:31;;;;;;;15.53;13.27;;;;;;;;;;4984911;28;20275;-54
2021/05/12 09:11:57;;;;;;;14.93;13.33;;;;;;;;;;4981737;28;20283;-54
2021/05/12 09:14:28;;;;;;;16.17;13.03;;;;;;;;;;4987270;28;20793;-56
2021/05/12 09:16:53;;;;;;;14.93;12.50;;;;;;;;;;4981846;28;20218;-53
2021/05/12 09:19:23;;;;;;;14.77;13.27;;;;;;;;;;4983619;28;20283;-53
2021/05/12 09:21:50;;;;;;;14.73;11.83;;;;;;;;;;4976227;28;20192;-53
2021/05/12 09:24:18;;;;;;;13.63;11.27;;;;;;;;;;4980808;28;20192;-56
2021/05/12 09:26:47;;;;;;;12.87;10.40;;;;;;;;;;4984613;28;20192;-56
2021/05/12 09:29:25;;;;;;;11.43;10.20;;;;;;;;;;4985685;28;20676;-54
2021/05/12 09:31:52;;;;;;;10.67;9.27;;;;;;;;;;4977643;28;20271;-54
2021/05/12 09:34:18;;;;;;;11.83;9.70;;;;;;;;;;4979493;28;20285;-54
2021/05/12 09:36:45;;;;;;;11.03;9.87;;;;;;;;;;4982578;28;20853;-55
2021/05/12 09:39:14;;;;;;;11.20;10.07;;;;;;;;;;4984527;28;20228;-55
2021/05/12 09:41:40;;;;;;;12.60;11.30;;;;;;;;;;4981005;28;20188;-56
2021/05/12 09:44:10;;;;;;;12.10;10.73;;;;;;;;;;4978353;28;20238;-57
2021/05/12 09:46:40;;;;;;;12.40;10.97;;;;;;;;;;4983892;28;21123;-55
2021/05/12 09:49:08;;;;;;;11.37;10.27;;;;;;;;;;4979810;28;20198;-56
2021/05/12 09:51:38;;;;;;;11.90;10.70;;;;;;;;;;4984001;28;20204;-56
2021/05/12 09:54:17;;;;;;;12.07;10.80;;;;;;;;;;4983302;28;20214;-57
2021/05/12 09:56:44;;;;;;;11.27;9.37;;;;;;;;;;4979998;28;20207;-56
2021/05/12 09:59:10;;;;;;;8.37;7.57;;;;;;;;;;4982740;28;20196;-57
2021/05/12 10:01:39;;;;;;;10.03;7.70;;;;;;;;;;4983426;28;20195;-55
2021/05/12 10:04:20;;;;;;;8.77;7.87;;;;;;;;;;4985497;28;20200;-55
2021/05/12 10:06:46;;;;;;;7.97;7.07;;;;;;;;;;4983227;28;20196;-57
2021/05/12 10:09:22;;;;;;;6.87;6.20;;;;;;;;;;4981330;28;20242;-55
2021/05/12 10:12:27;;;;;;;8.53;6.73;;;;;;;;;;4983100;28;20718;-55
2021/05/12 10:15:00;;;;;;;6.67;5.97;;;;;;;;;;4930250;28;20216;-56
2021/05/12 10:17:28;;;;;;;9.57;6.67;;;;;;;;;;4948109;28;20263;-57
2021/05/12 10:19:55;;;;;;;7.77;6.97;;;;;;;;;;4959846;28;20200;-59
2021/05/12 10:22:21;;;;;;;7.50;6.70;;;;;;;;;;4983832;28;20200;-56
2021/05/12 10:24:50;;;;;;;8.30;6.70;;;;;;;;;;4972342;28;20242;-56
2021/05/12 10:27:25;;;;;;;7.60;6.17;;;;;;;;;;4985151;28;20176;-56
2021/05/12 10:29:55;;;;;;;7.83;7.03;;;;;;;;;;4983947;28;20202;-54
2021/05/12 10:32:30;;;;;;;7.47;6.67;;;;;;;;;;4984362;28;20710;-55
2021/05/12 10:35:00;;;;;;;7.27;6.53;;;;;;;;;;4983339;28;20717;-57
2021/05/12 10:37:27;;;;;;;9.53;8.53;;;;;;;;;;4986196;28;20235;-54
2021/05/12 10:40:00;;;;;;;10.30;8.60;;;;;;;;;;4983260;28;20199;-57
2021/05/12 10:42:54;;;;;;;10.13;8.93;;;;;;;;;;4984422;28;20224;-55
2021/05/12 10:45:31;;;;;;;9.83;8.83;;;;;;;;;;4983724;28;20687;-55
2021/05/12 10:47:56;;;;;;;9.27;8.03;;;;;;;;;;4978319;28;20274;-54
2021/05/12 10:50:42;;;;;;;9.37;8.20;;;;;;;;;;4984165;28;20291;-55
2021/05/12 10:53:22;;;;;;;9.17;8.20;;;;;;;;;;4983312;28;20267;-57
2021/05/12 10:56:00;;;;;;;9.57;8.30;;;;;;;;;;4977188;28;20211;-56
2021/05/12 10:58:28;;;;;;;9.43;8.53;;;;;;;;;;4983824;28;20271;-56
2021/05/12 11:00:58;;;;;;;9.20;8.10;;;;;;;;;;4985086;28;20191;-55
2021/05/12 11:03:52;;;;;;;8.73;7.67;;;;;;;;;;4984368;28;20192;-55
2021/05/12 11:06:19;;;;;;;9.00;8.10;;;;;;;;;;4986281;28;20235;-55
2021/05/12 11:09:08;;;;;;;8.73;7.93;;;;;;;;;;4982899;28;20219;-56
2021/05/12 11:11:45;;;;;;;9.93;9.03;;;;;;;;;;4987000;28;20212;-56
2021/05/12 11:14:28;;;;;;;10.73;9.63;;;;;;;;;;4982632;28;20183;-53
2021/05/12 11:17:09;;;;;;;9.87;8.93;;;;;;;;;;4984632;28;20220;-54
2021/05/12 11:19:34;;;;;;;10.90;9.90;;;;;;;;;;4982411;28;20195;-57
2021/05/12 11:22:43;;;;;;;11.17;10.07;;;;;;;;;;4986167;28;20192;-55
2021/05/12 11:33:27;;;;;;;11.77;10.67;;;;;;;;;;4984760;28;20634;-56
2021/05/12 11:36:02;;;;;;;12.30;11.00;;;;;;;;;;4982230;28;20622;-54
2021/05/12 11:38:28;;;;;;;11.93;10.77;;;;;;;;;;4984043;28;20683;-54
2021/05/12 11:41:05;;;;;;;11.10;10.10;;;;;;;;;;4984736;28;20184;-56
2021/05/12 11:43:32;;;;;;;11.87;10.77;;;;;;;;;;4983603;28;20190;-55
2021/05/12 11:46:06;;;;;;;11.33;10.10;;;;;;;;;;4984173;28;20204;-56
2021/05/12 11:48:36;;;;;;;11.10;10.10;;;;;;;;;;4983576;28;20207;-56
2021/05/12 11:51:03;;;;;;;10.93;9.93;;;;;;;;;;4984152;28;20280;-56
2021/05/12 11:53:29;;;;;;;12.10;10.90;;;;;;;;;;4984677;28;20191;-57
2021/05/12 11:55:58;;;;;;;12.00;10.80;;;;;;;;;;4983687;28;20209;-57
2021/05/12 11:58:24;;;;;;;13.23;11.90;;;;;;;;;;4982792;28;20188;-60
2021/05/12 12:00:49;;;;;;;11.63;10.50;;;;;;;;;;4982797;28;20664;-57
2021/05/12 12:03:15;;;;;;;11.23;9.27;;;;;;;;;;4982689;28;20216;-56
2021/05/12 12:05:55;;;;;;;9.60;8.60;;;;;;;;;;4980002;28;20263;-57
2021/05/12 12:08:22;;;;;;;11.20;8.80;;;;;;;;;;4982697;28;20192;-56
2021/05/12 12:10:47;;;;;;;9.30;8.37;;;;;;;;;;4984656;28;20278;-56
2021/05/12 12:13:14;;;;;;;9.50;8.60;;;;;;;;;;4979447;28;20284;-57
2021/05/12 12:15:42;;;;;;;12.03;8.20;;;;;;;;;;4986184;28;20212;-56
2021/05/12 12:18:10;;;;;;;9.67;8.70;;;;;;;;;;4981859;28;20208;-56
2021/05/12 12:20:36;;;;;;;8.20;7.40;;;;;;;;;;4985200;28;20195;-56
2021/05/12 12:23:02;;;;;;;8.73;7.93;;;;;;;;;;4985321;28;20188;-56
2021/05/12 12:25:51;;;;;;;8.37;7.47;;;;;;;;;;4986365;28;20200;-57
2021/05/12 12:28:16;;;;;;;8.90;7.50;;;;;;;;;;4981284;28;20529;-58
2021/05/12 12:30:43;;;;;;;7.57;6.77;;;;;;;;;;4985777;28;20198;-56
2021/05/12 12:33:08;;;;;;;8.35;7.15;;;;;;;;;;4985879;28;20197;-56
2021/05/12 12:35:33;;;;;;;7.13;6.30;;;;;;;;;;4983220;28;20731;-56
2021/05/12 12:37:59;;;;;;;7.47;6.77;;;;;;;;;;4984739;28;20219;-56
2021/05/12 12:40:26;;;;;;;7.22;6.57;;;;;;;;;;4985637;28;20214;-56
2021/05/12 12:42:56;;;;;;;7.70;7.00;;;;;;;;;;4986321;28;20276;-57
2021/05/12 12:45:31;;;;;;;8.10;6.33;;;;;;;;;;4986896;28;20580;-57
2021/05/12 12:48:07;;;;;;;7.27;6.50;;;;;;;;;;4978136;28;20198;-55
2021/05/12 12:50:37;;;;;;;7.68;6.97;;;;;;;;;;4981799;28;20199;-55
2021/05/12 12:53:07;;;;;;;7.67;6.60;;;;;;;;;;4985267;28;20192;-55
2021/05/12 12:55:34;;;;;;;7.70;6.77;;;;;;;;;;4980593;28;20212;-57
2021/05/12 12:58:04;;;;;;;6.87;6.17;;;;;;;;;;4982866;28;20213;-54
2021/05/12 13:00:33;;;;;;;8.63;6.30;;;;;;;;;;4968957;28;20258;-56
2021/05/12 13:03:03;;;;;;;6.60;5.97;;;;;;;;;;4978767;28;20203;-55
2021/05/12 13:05:37;;;;;;;9.30;6.27;;;;;;;;;;4985437;28;20596;-54
2021/05/12 13:08:15;;;;;;;7.90;6.13;;;;;;;;;;4983721;28;20195;-58
2021/05/12 13:10:44;;;;;;;5.97;5.47;;;;;;;;;;4985743;28;20246;-56
2021/05/12 13:13:21;;;;;;;7.35;6.05;;;;;;;;;;4984790;28;20203;-56
2021/05/12 13:15:46;;;;;;;7.30;6.20;;;;;;;;;;4982723;28;20222;-54
2021/05/12 13:18:11;;;;;;;6.93;6.25;;;;;;;;;;4982819;28;20207;-53
2021/05/12 13:20:41;;;;;;;6.85;6.20;;;;;;;;;;4984250;28;20212;-56
2021/05/12 13:23:14;;;;;;;6.65;5.93;;;;;;;;;;4981805;28;20599;-53
2021/05/12 13:25:50;;;;;;;11.50;6.80;;;;;;;;;;4980223;28;20208;-53
2021/05/12 13:28:18;;;;;;;8.93;6.10;;;;;;;;;;4984135;28;20203;-56
2021/05/12 13:30:45;;;;;;;7.00;5.90;;;;;;;;;;4982428;28;20207;-55
2021/05/12 13:33:10;;;;;;;6.43;5.83;;;;;;;;;;4982261;28;20199;-55
2021/05/12 13:35:36;;;;;;;6.43;5.80;;;;;;;;;;4983851;28;20204;-55
2021/05/12 13:38:04;;;;;;;6.40;5.43;;;;;;;;;;4981011;28;20685;-54
2021/05/12 13:40:30;;;;;;;7.15;5.38;;;;;;;;;;4985271;28;20614;-54
2021/05/12 13:42:55;;;;;;;6.38;5.47;;;;;;;;;;4987498;28;20191;-53
2021/05/12 13:45:20;;;;;;;7.75;6.05;;;;;;;;;;4983261;28;20290;-55
2021/05/12 13:47:46;;;;;;;6.80;5.20;;;;;;;;;;4984597;28;20192;-55
2021/05/12 13:50:22;;;;;;;6.43;5.63;;;;;;;;;;4984008;28;20192;-55
2021/05/12 14:03:38;;;;;;;6.40;5.80;;;;;;;;;;4987123;28;20234;-55
2021/05/12 14:06:04;;;;;;;7.32;5.60;;;;;;;;;;4982960;28;20631;-55
2021/05/12 14:08:29;;;;;;;7.47;5.63;;;;;;;;;;4984955;28;20200;-56
2021/05/12 14:10:55;;;;;;;6.80;6.00;;;;;;;;;;4987226;28;20196;-56
2021/05/12 14:13:27;;;;;;;8.07;6.03;;;;;;;;;;4985706;28;20185;-55
2021/05/12 14:18:37;;;;;;;7.38;5.90;;;;;;;;;;4982471;28;20276;-56
2021/05/12 14:21:08;;;;;;;7.15;5.68;;;;;;;;;;4980019;28;20221;-55
2021/05/12 14:23:34;;;;;;;6.30;5.70;;;;;;;;;;4981900;28;20188;-55
2021/05/12 14:25:59;;;;;;;7.82;5.57;;;;;;;;;;4984692;28;20676;-56
2021/05/12 14:29:15;;;;;;;7.82;5.50;;;;;;;;;;4983658;28;20184;-56
2021/05/12 14:31:16;;;;;;;8.38;5.95;;;;;;;;;;4978347;28;20206;-56
2021/05/12 14:33:42;;;;;;;7.53;5.03;;;;;;;;;;4975774;28;20199;-56
2021/05/12 14:36:09;;;;;;;7.15;5.32;;;;;;;;;;4986701;28;20294;-56
2021/05/12 14:38:37;;;;;;;7.82;5.10;;;;;;;;;;4984270;28;20196;-55
2021/05/12 14:41:04;;;;;;;6.72;5.00;;;;;;;;;;4983541;28;20207;-55
2021/05/12 14:43:30;;;;;;;7.65;5.13;;;;;;;;;;4984482;28;20250;-55
2021/05/12 14:45:55;;;;;;;7.85;5.53;;;;;;;;;;4980907;28;20204;-56
2021/05/12 14:48:25;;;;;;;7.53;5.47;;;;;;;;;;4977151;28;20185;-55
2021/05/12 14:50:52;;;;;;;8.23;5.47;;;;;;;;;;4981483;28;20196;-55
2021/05/12 14:53:20;;;;;;;5.13;4.63;;;;;;;;;;4986282;28;20618;-54
2021/05/12 15:03:30;;;;;;;5.85;4.90;;;;;;;;;;4983506;28;20199;-56